CA-0485 weather

CLOSED De Lesseps Field
Toronto, Ontario, Canada

Public forecast

Using degrees Celsius for public forecast. Weather courtesy of forecast.io.

Closest aviation weather report (METAR) to De Lesseps Field

Closest report is Lester B. Pearson International Airport, 6.0 nm (11.1 km) WSW. Retrieved 2019/11/15 16:00 UTC (46 minutes ago):

CYYZ 151600Z 23009KT 12SM OVC015 00/M02 A3017 RMK SC8 SLP224

Closest aviation forecast (TAF) to De Lesseps Field

Closest forecast is Lester B. Pearson International Airport, 6.0 nm (11.1 km) WSW. Retrieved 2019/11/15 15:44 UTC (1 hour ago):

TAF CYYZ 151441Z 1515/1618 24010G20KT P6SM OVC020 TEMPO 1515/1518 P6SM -SN BKN025 BECMG 1515/1516 26015G25KT FM151800 27015G25KT P6SM BKN030 BECMG 1518/1520 30012G22KT FM152200 30012G22KT P6SM -SHSNRA OVC025 FM160000 34012KT P6SM BKN030 FM160300 01010KT P6SM FEW030 FM160600 03008KT P6SM SKC FM161600 06012KT P6SM BKN015 RMK NXT FCST BY 151800Z